Time;durP1;ratioP1;P1;durP2;ratioP2;P2;SDS_P1;SDS_P2;PMS_P1;PMS_P2;Temp;Humidity;BMP_temperature;BMP_pressure;BME280_temperature;BME280_humidity;BME280_pressure;Samples;Min_cycle;Max_cycle;Signal;HPM_P1;HPM_P2
2021/09/14 00:00:56;;;;;;;;;;;13.00;99.90;;;;;;5074532;28;19909;-68
2021/09/14 00:03:23;;;;;;;;;;;13.00;99.90;;;;;;5074215;28;19913;-68
2021/09/14 00:05:49;;;;;;;;;;;13.10;99.90;;;;;;5074272;28;20355;-69
2021/09/14 00:08:16;;;;;;;;;;;13.30;99.90;;;;;;5074254;28;19909;-69
2021/09/14 00:10:42;;;;;;;;;;;13.60;99.90;;;;;;5074144;28;19908;-69
2021/09/14 00:13:09;;;;;;;;;;;13.70;99.90;;;;;;5074110;28;19912;-69
2021/09/14 00:15:36;;;;;;;;;;;13.80;99.90;;;;;;5074054;28;19908;-68
2021/09/14 00:18:03;;;;;;;;;;;13.60;99.90;;;;;;5073943;28;19919;-69
2021/09/14 00:20:29;;;;;;;;;;;13.60;99.90;;;;;;5073771;28;19908;-69
2021/09/14 00:22:56;;;;;;;;;;;13.50;99.90;;;;;;5073938;28;19908;-69
2021/09/14 00:25:23;;;;;;;;;;;13.40;99.90;;;;;;5073668;28;20351;-68
2021/09/14 00:27:50;;;;;;;;;;;13.50;99.90;;;;;;5073593;28;19912;-68
2021/09/14 00:30:16;;;;;;;;;;;13.70;99.90;;;;;;5073896;28;19908;-68
2021/09/14 00:32:43;;;;;;;;;;;13.80;99.90;;;;;;5073705;28;19916;-69
2021/09/14 00:35:10;;;;;;;;;;;13.80;99.90;;;;;;5073863;28;19912;-68
2021/09/14 00:37:36;;;;;;;;;;;13.70;99.90;;;;;;5073236;28;19956;-69
2021/09/14 00:40:05;;;;;;;;;;;13.60;99.90;;;;;;5073701;28;19909;-68
2021/09/14 00:42:32;;;;;;;;;;;13.80;99.90;;;;;;5073543;28;19962;-69
2021/09/14 00:44:58;;;;;;;;;;;13.90;99.90;;;;;;5073271;28;20371;-68
2021/09/14 00:47:25;;;;;;;;;;;13.90;99.90;;;;;;5073218;28;19974;-69
2021/09/14 00:49:51;;;;;;;;;;;13.90;99.90;;;;;;5073173;28;19909;-69
2021/09/14 00:52:18;;;;;;;;;;;14.00;99.90;;;;;;5073434;28;19919;-68
2021/09/14 00:54:45;;;;;;;;;;;14.00;99.90;;;;;;5073164;28;20003;-69
2021/09/14 00:57:12;;;;;;;;;;;13.90;99.90;;;;;;5073235;28;19961;-68
2021/09/14 00:59:38;;;;;;;;;;;13.90;99.90;;;;;;5073130;28;20431;-69
2021/09/14 01:02:05;;;;;;;;;;;14.00;99.90;;;;;;5073013;28;19944;-69
2021/09/14 01:04:32;;;;;;;;;;;14.10;99.90;;;;;;5073135;28;19908;-68
2021/09/14 01:07:01;;;;;;;;;;;14.30;99.90;;;;;;5072803;28;19912;-68
2021/09/14 01:09:30;;;;;;;;;;;14.20;99.90;;;;;;5072856;28;19909;-69
2021/09/14 01:11:57;;;;;;;;;;;14.00;99.90;;;;;;5072881;28;20062;-68
2021/09/14 01:14:24;;;;;;;;;;;13.90;99.90;;;;;;5072742;28;19983;-68
2021/09/14 01:16:51;;;;;;;;;;;14.00;99.90;;;;;;5072139;28;20247;-68
2021/09/14 01:19:17;;;;;;;;;;;14.10;99.90;;;;;;5072478;28;19921;-68
2021/09/14 01:21:44;;;;;;;;;;;14.00;99.90;;;;;;5072464;28;19908;-68
2021/09/14 01:24:12;;;;;;;;;;;13.80;99.90;;;;;;5072569;28;20003;-68
2021/09/14 01:26:39;;;;;;;;;;;13.80;99.90;;;;;;5073028;28;19908;-69
2021/09/14 01:29:07;;;;;;;;;;;13.70;99.90;;;;;;5072809;28;20294;-69
2021/09/14 01:31:34;;;;;;;;;;;13.80;99.90;;;;;;5071738;28;19958;-69
2021/09/14 01:34:00;;;;;;;;;;;13.90;99.90;;;;;;5072420;28;19954;-69
2021/09/14 01:36:27;;;;;;;;;;;14.00;99.90;;;;;;5073043;28;20015;-69
2021/09/14 01:38:54;;;;;;;;;;;13.90;99.90;;;;;;5072667;28;19923;-69
2021/09/14 01:41:20;;;;;;;;;;;13.90;99.90;;;;;;5105155;28;19913;-69
2021/09/14 01:43:47;;;;;;;;;;;13.70;99.90;;;;;;5072334;28;19913;-68
2021/09/14 01:46:14;;;;;;;;;;;13.50;99.90;;;;;;5072482;28;19915;-69
2021/09/14 01:48:41;;;;;;;;;;;13.30;99.90;;;;;;5072748;28;20362;-68
2021/09/14 01:51:07;;;;;;;;;;;13.30;99.90;;;;;;5072465;28;19966;-68
2021/09/14 01:53:34;;;;;;;;;;;13.30;99.90;;;;;;5072044;28;19995;-68
2021/09/14 01:56:06;;;;;;;;;;;13.40;99.90;;;;;;5072373;28;19908;-68
2021/09/14 01:58:32;;;;;;;;;;;13.60;99.90;;;;;;5072262;28;19916;-68
2021/09/14 02:01:11;;;;;;;;;;;13.50;99.90;;;;;;5072275;28;20351;-68
2021/09/14 02:03:46;;;;;;;;;;;13.50;99.90;;;;;;5072153;28;19913;-68
2021/09/14 02:23:45;;;;;;;;;;;13.40;99.90;;;;;;5072260;28;19982;-68
2021/09/14 02:44:17;;;;;;;;;;;13.10;99.90;;;;;;5073710;28;20329;-68
2021/09/14 03:00:46;;;;;;;;;;;13.60;99.90;;;;;;5069333;28;19924;-69
2021/09/14 03:03:13;;;;;;;;;;;13.80;99.90;;;;;;5075347;28;20267;-69
2021/09/14 03:05:40;;;;;;;;;;;13.70;99.90;;;;;;5075119;28;20374;-68
2021/09/14 03:08:06;;;;;;;;;;;13.80;99.90;;;;;;5075502;28;19948;-69
2021/09/14 03:10:33;;;;;;;;;;;13.70;99.90;;;;;;5075439;28;19908;-69
2021/09/14 03:13:00;;;;;;;;;;;13.50;99.90;;;;;;5075377;28;19916;-68
2021/09/14 03:15:27;;;;;;;;;;;13.50;99.90;;;;;;5075290;28;19912;-69
2021/09/14 03:17:53;;;;;;;;;;;13.10;99.90;;;;;;5107274;28;19978;-69
2021/09/14 03:20:20;;;;;;;;;;;12.80;99.90;;;;;;5073862;28;19957;-69
2021/09/14 03:22:48;;;;;;;;;;;12.70;99.90;;;;;;5075275;28;19908;-69
2021/09/14 03:25:14;;;;;;;;;;;12.70;99.90;;;;;;5075177;28;20363;-69
2021/09/14 03:27:41;;;;;;;;;;;12.70;99.90;;;;;;5074836;28;19912;-69
2021/09/14 03:30:08;;;;;;;;;;;12.70;99.90;;;;;;5074891;28;19919;-69
2021/09/14 03:32:35;;;;;;;;;;;12.70;99.90;;;;;;5074922;28;19939;-69
2021/09/14 03:35:01;;;;;;;;;;;12.80;99.90;;;;;;5075263;28;19962;-69
2021/09/14 03:37:28;;;;;;;;;;;12.80;99.90;;;;;;5075113;28;19909;-69
2021/09/14 03:39:55;;;;;;;;;;;12.90;99.90;;;;;;5074022;28;20468;-69
2021/09/14 03:42:21;;;;;;;;;;;13.00;99.90;;;;;;5074876;28;19909;-69
2021/09/14 03:44:48;;;;;;;;;;;12.70;99.90;;;;;;5074632;28;19908;-69
2021/09/14 03:47:15;;;;;;;;;;;12.50;99.90;;;;;;5074281;28;19920;-69
2021/09/14 03:49:41;;;;;;;;;;;12.30;99.90;;;;;;5074499;28;20049;-69
2021/09/14 03:52:08;;;;;;;;;;;12.10;99.90;;;;;;5074651;28;19908;-69
2021/09/14 03:54:35;;;;;;;;;;;12.10;99.90;;;;;;5074273;28;19978;-69
2021/09/14 03:57:01;;;;;;;;;;;12.10;99.90;;;;;;5074213;28;19987;-69
2021/09/14 03:59:28;;;;;;;;;;;12.20;99.90;;;;;;5074374;28;19959;-69
2021/09/14 04:01:58;;;;;;;;;;;12.30;99.90;;;;;;5073989;28;19908;-69
2021/09/14 04:05:02;;;;;;;;;;;12.30;99.90;;;;;;5074240;28;20409;-68
2021/09/14 04:07:23;;;;;;;;;;;12.30;99.90;;;;;;5073792;28;20359;-68
2021/09/14 04:09:50;;;;;;;;;;;12.30;99.90;;;;;;5073723;28;19954;-69
2021/09/14 04:12:17;;;;;;;;;;;12.10;99.90;;;;;;5073862;28;20275;-69
2021/09/14 04:14:43;;;;;;;;;;;11.80;99.90;;;;;;5074135;28;19908;-69
2021/09/14 04:17:10;;;;;;;;;;;11.80;99.90;;;;;;5074031;28;19962;-68
2021/09/14 04:19:37;;;;;;;;;;;11.70;99.90;;;;;;5073676;28;19927;-69
2021/09/14 04:22:04;;;;;;;;;;;11.70;99.90;;;;;;5074009;28;19909;-67
2021/09/14 04:24:34;;;;;;;;;;;11.70;99.90;;;;;;5074114;28;19916;-68
2021/09/14 04:27:00;;;;;;;;;;;11.80;99.90;;;;;;5073831;28;19940;-68
2021/09/14 04:29:27;;;;;;;;;;;11.80;99.90;;;;;;5073986;28;19913;-68
2021/09/14 04:31:54;;;;;;;;;;;11.70;99.90;;;;;;5073406;28;20363;-68
2021/09/14 04:34:20;;;;;;;;;;;11.70;99.90;;;;;;5073866;28;19972;-67
2021/09/14 04:36:47;;;;;;;;;;;11.70;99.90;;;;;;5073878;28;20149;-68
2021/09/14 04:39:14;;;;;;;;;;;11.60;99.90;;;;;;5073489;28;19955;-68
2021/09/14 04:41:41;;;;;;;;;;;11.60;99.90;;;;;;5073425;28;19931;-69
2021/09/14 04:44:08;;;;;;;;;;;11.70;99.90;;;;;;5106174;28;19966;-68
2021/09/14 04:46:35;;;;;;;;;;;11.80;99.90;;;;;;5073742;28;19912;-69
2021/09/14 04:49:05;;;;;;;;;;;11.80;99.90;;;;;;5073945;28;19908;-68
2021/09/14 04:51:32;;;;;;;;;;;11.90;99.90;;;;;;5073462;28;19962;-68
2021/09/14 04:53:58;;;;;;;;;;;11.60;99.90;;;;;;5073365;28;19916;-69
2021/09/14 04:56:25;;;;;;;;;;;11.50;99.90;;;;;;5073482;28;19961;-69
2021/09/14 04:58:52;;;;;;;;;;;11.40;99.90;;;;;;5073047;28;20333;-69
2021/09/14 05:01:19;;;;;;;;;;;11.40;99.90;;;;;;5073580;28;19908;-69
2021/09/14 05:03:46;;;;;;;;;;;11.30;99.90;;;;;;5073133;28;19909;-68
2021/09/14 05:06:12;;;;;;;;;;;11.30;99.90;;;;;;5072826;28;19919;-69
2021/09/14 05:08:39;;;;;;;;;;;11.40;99.90;;;;;;5073390;28;20274;-69
2021/09/14 05:11:06;;;;;;;;;;;11.40;99.90;;;;;;5073454;28;19955;-69
2021/09/14 05:13:38;;;;;;;;;;;11.50;99.90;;;;;;5073088;28;19909;-68
2021/09/14 05:16:05;;;;;;;;;;;11.40;99.90;;;;;;5073377;28;19920;-69
2021/09/14 05:18:32;;;;;;;;;;;11.40;99.90;;;;;;5073243;28;20066;-69
2021/09/14 05:20:59;;;;;;;;;;;11.40;99.90;;;;;;5073226;28;19908;-69
2021/09/14 05:23:32;;;;;;;;;;;11.40;99.90;;;;;;5073236;28;20267;-69
2021/09/14 05:26:03;;;;;;;;;;;11.50;99.90;;;;;;5072848;28;19909;-69
2021/09/14 05:28:30;;;;;;;;;;;11.70;99.90;;;;;;5073027;28;19915;-69
2021/09/14 05:30:58;;;;;;;;;;;11.70;99.90;;;;;;5072961;28;19909;-68
2021/09/14 05:33:25;;;;;;;;;;;11.80;99.90;;;;;;5072829;28;19914;-68
2021/09/14 05:35:53;;;;;;;;;;;11.90;99.90;;;;;;5072623;28;19954;-68
2021/09/14 05:38:21;;;;;;;;;;;11.90;99.90;;;;;;5072568;28;19917;-68
2021/09/14 05:40:48;;;;;;;;;;;11.90;99.90;;;;;;5072791;28;19924;-68
2021/09/14 05:43:15;;;;;;;;;;;11.90;99.90;;;;;;5072501;28;20288;-68
2021/09/14 05:45:42;;;;;;;;;;;11.90;99.90;;;;;;5072218;28;19970;-68
2021/09/14 05:48:08;;;;;;;;;;;11.80;99.90;;;;;;5072555;28;19952;-69
2021/09/14 05:50:35;;;;;;;;;;;11.70;99.90;;;;;;5072556;28;19945;-67
2021/09/14 05:53:01;;;;;;;;;;;11.60;99.90;;;;;;5072466;28;19923;-69
2021/09/14 05:55:28;;;;;;;;;;;11.60;99.90;;;;;;5072783;28;19909;-69
2021/09/14 05:57:55;;;;;;;;;;;11.50;99.90;;;;;;5072430;28;20393;-69
2021/09/14 06:00:22;;;;;;;;;;;11.50;99.90;;;;;;5072247;28;19908;-68
2021/09/14 06:02:49;;;;;;;;;;;11.50;99.90;;;;;;5072298;28;20007;-68
2021/09/14 06:05:16;;;;;;;;;;;11.40;99.90;;;;;;5072458;28;19917;-69
2021/09/14 06:07:42;;;;;;;;;;;11.50;99.90;;;;;;5072192;28;19909;-68
2021/09/14 06:10:09;;;;;;;;;;;11.50;99.90;;;;;;5072504;28;19916;-69
2021/09/14 06:12:36;;;;;;;;;;;11.50;99.90;;;;;;5072565;28;20374;-69
2021/09/14 06:15:03;;;;;;;;;;;11.60;99.90;;;;;;5072392;28;19944;-69
2021/09/14 06:17:29;;;;;;;;;;;11.60;99.90;;;;;;5072483;28;20359;-69
2021/09/14 06:19:56;;;;;;;;;;;11.80;99.90;;;;;;5076886;28;20394;-68
2021/09/14 06:22:23;;;;;;;;;;;11.90;99.90;;;;;;5077414;28;19912;-69
2021/09/14 06:24:49;;;;;;;;;;;11.90;99.90;;;;;;5077266;28;19909;-69
2021/09/14 06:27:16;;;;;;;;;;;12.00;99.90;;;;;;5077488;28;20276;-69
2021/09/14 06:29:43;;;;;;;;;;;12.00;99.90;;;;;;5076115;28;19908;-69
2021/09/14 06:32:09;;;;;;;;;;;12.10;99.90;;;;;;5076476;28;19987;-69
2021/09/14 06:34:36;;;;;;;;;;;12.10;99.90;;;;;;5076996;28;19913;-68
2021/09/14 06:37:04;;;;;;;;;;;12.00;99.90;;;;;;5078937;28;19909;-69
2021/09/14 06:39:30;;;;;;;;;;;11.90;99.90;;;;;;5077897;28;20007;-69
2021/09/14 06:41:57;;;;;;;;;;;11.80;99.90;;;;;;5079169;28;19913;-69
2021/09/14 06:44:24;;;;;;;;;;;11.70;99.90;;;;;;5078762;28;19928;-68
2021/09/14 06:46:50;;;;;;;;;;;11.60;99.90;;;;;;5078606;28;19916;-69
2021/09/14 06:49:17;;;;;;;;;;;11.60;99.90;;;;;;5080055;28;19928;-69
2021/09/14 06:51:44;;;;;;;;;;;11.60;99.90;;;;;;5074411;28;19953;-69
2021/09/14 06:54:11;;;;;;;;;;;11.60;99.90;;;;;;5074297;28;19909;-69
2021/09/14 06:56:38;;;;;;;;;;;11.60;99.90;;;;;;5074579;28;19920;-70
2021/09/14 06:59:04;;;;;;;;;;;11.70;99.90;;;;;;5074067;28;19935;-69
2021/09/14 07:01:31;;;;;;;;;;;11.70;99.90;;;;;;5073672;28;20381;-69
2021/09/14 07:03:58;;;;;;;;;;;11.70;99.90;;;;;;5073378;28;19923;-69
2021/09/14 07:06:24;;;;;;;;;;;11.70;99.90;;;;;;5073508;28;20373;-69
2021/09/14 07:08:51;;;;;;;;;;;11.80;99.90;;;;;;5073354;28;20363;-69
2021/09/14 07:11:18;;;;;;;;;;;11.90;99.90;;;;;;5073503;28;19912;-69
2021/09/14 07:13:45;;;;;;;;;;;11.90;99.90;;;;;;5073137;28;20267;-69
2021/09/14 07:16:13;;;;;;;;;;;12.00;99.90;;;;;;5073410;28;19954;-68
2021/09/14 07:18:41;;;;;;;;;;;11.90;99.90;;;;;;5072885;28;19916;-68
2021/09/14 07:21:08;;;;;;;;;;;11.90;99.90;;;;;;5073155;28;19939;-69
2021/09/14 07:23:34;;;;;;;;;;;12.00;99.90;;;;;;5072806;28;19913;-69
2021/09/14 07:26:01;;;;;;;;;;;12.10;99.90;;;;;;5073361;28;20516;-69
2021/09/14 07:28:28;;;;;;;;;;;12.20;99.90;;;;;;5075198;28;19920;-69
2021/09/14 07:30:54;;;;;;;;;;;12.30;99.90;;;;;;5072230;28;19909;-69
2021/09/14 07:33:21;;;;;;;;;;;12.30;99.90;;;;;;5073415;28;19909;-69
2021/09/14 07:35:48;;;;;;;;;;;12.30;99.90;;;;;;5073536;28;19938;-69
2021/09/14 07:38:14;;;;;;;;;;;12.30;99.90;;;;;;5072986;28;19913;-69
2021/09/14 07:40:41;;;;;;;;;;;12.30;99.90;;;;;;5072734;28;19960;-69
2021/09/14 07:43:08;;;;;;;;;;;12.30;99.90;;;;;;5072312;28;19917;-69
2021/09/14 07:45:34;;;;;;;;;;;12.30;99.90;;;;;;5072816;28;20028;-69
2021/09/14 07:48:01;;;;;;;;;;;12.40;99.90;;;;;;5072486;28;20015;-68
2021/09/14 07:50:28;;;;;;;;;;;12.30;99.90;;;;;;5072619;28;19912;-69
2021/09/14 07:52:54;;;;;;;;;;;12.40;99.90;;;;;;5072430;28;19930;-69
2021/09/14 07:55:21;;;;;;;;;;;12.40;99.90;;;;;;5072827;28;19927;-69
2021/09/14 07:57:48;;;;;;;;;;;12.40;99.90;;;;;;5071854;28;19916;-69
2021/09/14 08:00:14;;;;;;;;;;;12.40;99.90;;;;;;5072291;28;20344;-68
2021/09/14 08:02:41;;;;;;;;;;;12.40;99.90;;;;;;5072371;28;20046;-68
2021/09/14 08:05:08;;;;;;;;;;;12.40;99.90;;;;;;5072400;28;19917;-68
2021/09/14 08:07:35;;;;;;;;;;;12.40;99.90;;;;;;5071877;28;20410;-68
2021/09/14 08:10:01;;;;;;;;;;;12.40;99.90;;;;;;5071819;28;19915;-68
2021/09/14 08:12:28;;;;;;;;;;;12.30;99.90;;;;;;5072176;28;19999;-69
2021/09/14 08:14:55;;;;;;;;;;;12.40;99.90;;;;;;5072151;28;19962;-68
2021/09/14 08:17:21;;;;;;;;;;;12.40;99.90;;;;;;5072178;28;19908;-68
2021/09/14 08:19:48;;;;;;;;;;;12.40;99.90;;;;;;5071461;28;20264;-68
2021/09/14 08:22:15;;;;;;;;;;;12.40;99.90;;;;;;5071350;28;20015;-68
2021/09/14 08:24:41;;;;;;;;;;;12.40;99.90;;;;;;5071663;28;19970;-68
2021/09/14 08:27:20;;;;;;;;;;;12.30;99.90;;;;;;5071731;28;19939;-68
2021/09/14 08:29:56;;;;;;;;;;;12.20;99.90;;;;;;5071349;28;19909;-68
2021/09/14 08:32:22;;;;;;;;;;;12.10;99.90;;;;;;5071677;28;19962;-68
2021/09/14 08:34:49;;;;;;;;;;;12.10;99.90;;;;;;5072116;28;19912;-68
2021/09/14 08:37:16;;;;;;;;;;;12.10;99.90;;;;;;5071391;28;20363;-68
2021/09/14 08:39:43;;;;;;;;;;;12.20;99.90;;;;;;5071493;28;20386;-70
2021/09/14 08:42:14;;;;;;;;;;;12.20;99.90;;;;;;5071493;28;20384;-68
2021/09/14 08:44:42;;;;;;;;;;;12.30;99.90;;;;;;5070959;28;20036;-68
2021/09/14 08:47:09;;;;;;;;;;;12.40;99.90;;;;;;5070979;28;20042;-69
2021/09/14 08:49:36;;;;;;;;;;;12.40;99.90;;;;;;5071101;28;20343;-68
2021/09/14 08:52:02;;;;;;;;;;;12.50;99.90;;;;;;5071005;28;20007;-68
2021/09/14 08:54:29;;;;;;;;;;;12.40;99.90;;;;;;5071429;28;20340;-68
2021/09/14 08:56:55;;;;;;;;;;;12.40;99.90;;;;;;5070893;28;20267;-68
2021/09/14 08:59:30;;;;;;;;;;;12.40;99.90;;;;;;5070901;28;19916;-68
2021/09/14 09:01:58;;;;;;;;;;;12.40;99.90;;;;;;5070979;28;19916;-68
2021/09/14 09:04:24;;;;;;;;;;;12.30;99.90;;;;;;5070819;28;19912;-68
2021/09/14 09:06:51;;;;;;;;;;;12.30;99.90;;;;;;5072399;28;19947;-68
2021/09/14 09:09:19;;;;;;;;;;;12.30;99.90;;;;;;5072987;28;19908;-68
2021/09/14 09:11:55;;;;;;;;;;;12.40;99.90;;;;;;5072896;28;19908;-68
2021/09/14 09:14:51;;;;;;;;;;;12.40;99.90;;;;;;5072798;28;20420;-68
2021/09/14 09:17:19;;;;;;;;;;;12.40;99.90;;;;;;5068032;28;19912;-68
2021/09/14 09:19:54;;;;;;;;;;;12.30;99.90;;;;;;5072593;28;19970;-69
2021/09/14 09:22:23;;;;;;;;;;;12.30;99.90;;;;;;5072477;28;19947;-68
2021/09/14 09:24:50;;;;;;;;;;;12.20;99.90;;;;;;5074395;28;19912;-68
2021/09/14 09:27:19;;;;;;;;;;;12.20;99.90;;;;;;5073196;28;19977;-68
2021/09/14 09:29:56;;;;;;;;;;;12.20;99.90;;;;;;5072923;28;19912;-68
2021/09/14 09:32:22;;;;;;;;;;;12.20;99.90;;;;;;5073272;28;20003;-68
2021/09/14 09:34:56;;;;;;;;;;;12.20;99.90;;;;;;5073238;28;19953;-68
2021/09/14 09:37:23;;;;;;;;;;;12.30;99.90;;;;;;5072869;28;19939;-69
2021/09/14 09:39:49;;;;;;;;;;;12.30;99.90;;;;;;5072550;28;20479;-68
2021/09/14 09:42:16;;;;;;;;;;;12.30;99.90;;;;;;5072600;28;20271;-69
2021/09/14 09:44:57;;;;;;;;;;;12.30;99.90;;;;;;5072509;28;20303;-68
2021/09/14 09:47:24;;;;;;;;;;;12.30;99.90;;;;;;5072365;28;19935;-68
2021/09/14 09:49:52;;;;;;;;;;;12.30;99.90;;;;;;5072258;28;19915;-69
2021/09/14 09:52:19;;;;;;;;;;;12.20;99.90;;;;;;5071661;28;20005;-70
2021/09/14 09:54:46;;;;;;;;;;;12.20;99.90;;;;;;5104153;28;20359;-69
2021/09/14 09:57:13;;;;;;;;;;;12.20;99.90;;;;;;5072421;28;19908;-68
2021/09/14 09:59:39;;;;;;;;;;;12.20;99.90;;;;;;5072020;28;20012;-69
2021/09/14 10:02:12;;;;;;;;;;;12.20;99.90;;;;;;5072295;28;20275;-69
2021/09/14 10:04:42;;;;;;;;;;;12.20;99.90;;;;;;5072505;28;19908;-69
2021/09/14 10:07:10;;;;;;;;;;;12.10;99.90;;;;;;5071802;28;19908;-68
2021/09/14 10:09:47;;;;;;;;;;;12.10;99.90;;;;;;5071966;28;19917;-69
2021/09/14 10:12:21;;;;;;;;;;;12.10;99.90;;;;;;5072428;28;20367;-68
2021/09/14 10:15:07;;;;;;;;;;;12.10;99.90;;;;;;5071893;28;19912;-69
2021/09/14 10:17:48;;;;;;;;;;;12.10;99.90;;;;;;5071567;28;19908;-68
2021/09/14 10:20:15;;;;;;;;;;;12.00;99.90;;;;;;5071876;28;19919;-69
2021/09/14 10:22:45;;;;;;;;;;;12.00;99.90;;;;;;5072261;28;20002;-68
2021/09/14 10:25:19;;;;;;;;;;;11.90;99.90;;;;;;5070576;28;20367;-68
2021/09/14 10:27:47;;;;;;;;;;;11.90;99.90;;;;;;5072045;28;20364;-69
2021/09/14 10:30:14;;;;;;;;;;;11.80;99.90;;;;;;5071666;28;19916;-68
2021/09/14 10:32:43;;;;;;;;;;;11.80;99.90;;;;;;5072029;28;19908;-68
2021/09/14 10:35:10;;;;;;;;;;;11.80;99.90;;;;;;5072107;28;20085;-69
2021/09/14 10:37:37;;;;;;;;;;;11.80;99.90;;;;;;5071639;28;19909;-68
2021/09/14 10:40:11;;;;;;;;;;;11.80;99.90;;;;;;5072038;28;19916;-68
2021/09/14 10:42:38;;;;;;;;;;;11.80;99.90;;;;;;5072157;28;19912;-68
2021/09/14 10:45:10;;;;;;;;;;;11.80;99.90;;;;;;5071749;28;19918;-69
2021/09/14 10:47:38;;;;;;;;;;;11.70;99.90;;;;;;5071626;28;19920;-68
2021/09/14 10:50:05;;;;;;;;;;;11.70;99.90;;;;;;5071857;28;19909;-69
2021/09/14 10:52:32;;;;;;;;;;;11.70;99.90;;;;;;5072030;28;19955;-69
2021/09/14 10:54:59;;;;;;;;;;;11.70;99.90;;;;;;5071869;28;19912;-69
2021/09/14 10:57:33;;;;;;;;;;;11.70;99.90;;;;;;5071894;28;20459;-68
2021/09/14 11:00:00;;;;;;;;;;;11.70;99.90;;;;;;5071656;28;19920;-69
2021/09/14 11:02:26;;;;;;;;;;;11.60;99.90;;;;;;5071848;28;19908;-68
2021/09/14 11:04:55;;;;;;;;;;;11.70;99.90;;;;;;5073450;28;20264;-68
2021/09/14 11:07:21;;;;;;;;;;;11.60;99.90;;;;;;5075567;28;20363;-69
2021/09/14 11:09:54;;;;;;;;;;;11.70;99.90;;;;;;5075236;28;19909;-69
2021/09/14 11:12:22;;;;;;;;;;;11.70;99.90;;;;;;5075412;28;20291;-68
2021/09/14 11:14:49;;;;;;;;;;;11.70;99.90;;;;;;5075078;28;20003;-68
2021/09/14 11:17:22;;;;;;;;;;;11.70;99.90;;;;;;5075240;28;19916;-68
2021/09/14 11:19:51;;;;;;;;;;;11.70;99.90;;;;;;5075112;28;19990;-68
2021/09/14 11:22:34;;;;;;;;;;;11.70;99.90;;;;;;5075188;28;19944;-67
2021/09/14 11:25:01;;;;;;;;;;;11.70;99.90;;;;;;5075098;28;19908;-68
2021/09/14 11:27:28;;;;;;;;;;;11.70;99.90;;;;;;5075186;28;20515;-69
2021/09/14 11:29:55;;;;;;;;;;;11.70;99.90;;;;;;5074675;28;20334;-69
2021/09/14 11:32:22;;;;;;;;;;;11.70;99.90;;;;;;5074994;28;19999;-68
2021/09/14 11:34:52;;;;;;;;;;;11.60;99.90;;;;;;5075002;28;19935;-68
2021/09/14 11:37:26;;;;;;;;;;;11.60;99.90;;;;;;5074935;28;19963;-68
2021/09/14 11:39:52;;;;;;;;;;;11.60;99.90;;;;;;5074285;28;19916;-69
2021/09/14 11:42:20;;;;;;;;;;;11.60;99.90;;;;;;5074685;28;19956;-69
2021/09/14 11:44:47;;;;;;;;;;;11.50;99.90;;;;;;5074651;28;19908;-69
2021/09/14 11:47:13;;;;;;;;;;;11.60;99.90;;;;;;5073861;28;19962;-69
2021/09/14 11:49:50;;;;;;;;;;;11.60;99.90;;;;;;5074431;28;19934;-69
2021/09/14 11:52:17;;;;;;;;;;;11.50;99.90;;;;;;5074488;28;19971;-68
2021/09/14 11:54:44;;;;;;;;;;;11.60;99.90;;;;;;5074478;28;19908;-69
2021/09/14 11:57:20;;;;;;;;;;;11.50;99.90;;;;;;5074501;28;19909;-70
2021/09/14 11:59:47;;;;;;;;;;;11.50;99.90;;;;;;5074153;28;19917;-70
2021/09/14 12:02:18;;;;;;;;;;;11.50;99.90;;;;;;5073871;28;19914;-68
2021/09/14 12:04:44;;;;;;;;;;;11.60;99.90;;;;;;5074340;28;19909;-70
2021/09/14 12:07:20;;;;;;;;;;;11.60;99.90;;;;;;5074111;28;19912;-68
2021/09/14 12:09:47;;;;;;;;;;;11.60;99.90;;;;;;5073949;28;19916;-70
2021/09/14 12:12:14;;;;;;;;;;;11.60;99.90;;;;;;5074170;28;19913;-69
2021/09/14 12:14:41;;;;;;;;;;;11.60;99.90;;;;;;5073947;28;19931;-69
2021/09/14 12:17:08;;;;;;;;;;;11.60;99.90;;;;;;5072959;28;20274;-69
2021/09/14 12:19:35;;;;;;;;;;;11.50;99.90;;;;;;5073895;28;19990;-69
2021/09/14 12:22:02;;;;;;;;;;;11.50;99.90;;;;;;5074131;28;19909;-69
2021/09/14 12:24:29;;;;;;;;;;;11.50;99.90;;;;;;5074062;28;19912;-69
2021/09/14 12:26:55;;;;;;;;;;;11.50;99.90;;;;;;5074254;28;19912;-70
2021/09/14 12:29:23;;;;;;;;;;;11.50;99.90;;;;;;5073772;28;19912;-69
2021/09/14 12:31:49;;;;;;;;;;;11.50;99.90;;;;;;5073033;28;19954;-69
2021/09/14 12:34:16;;;;;;;;;;;11.50;99.90;;;;;;5073795;28;19932;-70
2021/09/14 12:36:43;;;;;;;;;;;11.50;99.90;;;;;;5073690;28;19908;-69
2021/09/14 12:39:10;;;;;;;;;;;11.40;99.90;;;;;;5073686;28;19917;-69
2021/09/14 12:41:37;;;;;;;;;;;11.50;99.90;;;;;;5073540;28;19914;-69
2021/09/14 12:44:04;;;;;;;;;;;11.50;99.90;;;;;;5073356;28;20279;-69
2021/09/14 12:46:31;;;;;;;;;;;11.50;99.90;;;;;;5072616;28;20354;-69
2021/09/14 12:48:58;;;;;;;;;;;11.50;99.90;;;;;;5073469;28;20358;-69
2021/09/14 12:51:24;;;;;;;;;;;11.40;99.90;;;;;;5073476;28;20255;-68
2021/09/14 12:53:51;;;;;;;;;;;11.40;99.90;;;;;;5073200;28;19914;-69
2021/09/14 12:56:18;;;;;;;;;;;11.30;99.90;;;;;;5073155;28;19912;-69
2021/09/14 12:58:45;;;;;;;;;;;11.20;99.90;;;;;;5073029;28;19919;-69
2021/09/14 13:01:12;;;;;;;;;;;11.10;99.90;;;;;;5072668;28;19908;-69
2021/09/14 13:03:39;;;;;;;;;;;11.10;99.90;;;;;;5072918;28;20355;-69
2021/09/14 13:06:05;;;;;;;;;;;11.00;99.90;;;;;;5073145;28;19955;-69
2021/09/14 13:08:32;;;;;;;;;;;11.00;99.90;;;;;;5073122;28;19908;-68
2021/09/14 13:10:59;;;;;;;;;;;11.00;99.90;;;;;;5073497;28;19966;-69
2021/09/14 13:16:10;;;;;;;;;;;11.10;99.90;;;;;;5082907;28;19915;-69
2021/09/14 13:18:37;;;;;;;;;;;11.10;99.90;;;;;;5072814;28;19970;-69
2021/09/14 13:21:05;;;;;;;;;;;11.10;99.90;;;;;;5073047;28;19909;-68
2021/09/14 13:23:32;;;;;;;;;;;11.20;99.90;;;;;;5072895;28;19940;-68
2021/09/14 13:25:59;;;;;;;;;;;11.20;99.90;;;;;;5072946;28;19908;-69
2021/09/14 13:28:26;;;;;;;;;;;11.20;99.90;;;;;;5071824;28;19909;-69
2021/09/14 13:30:52;;;;;;;;;;;11.20;99.90;;;;;;5072801;28;19970;-69
2021/09/14 13:33:19;;;;;;;;;;;11.20;99.90;;;;;;5072972;28;19951;-68
2021/09/14 13:35:46;;;;;;;;;;;11.10;99.90;;;;;;5072649;28;19908;-69
2021/09/14 13:38:13;;;;;;;;;;;11.00;99.90;;;;;;5072776;28;20342;-69
2021/09/14 13:40:40;;;;;;;;;;;11.00;99.90;;;;;;5072704;28;19913;-68
2021/09/14 13:43:08;;;;;;;;;;;11.00;99.90;;;;;;5072382;28;20007;-69
2021/09/14 13:48:24;;;;;;;;;;;11.00;99.90;;;;;;5072542;28;19966;-68
2021/09/14 13:50:51;;;;;;;;;;;11.00;99.90;;;;;;5072658;28;19912;-69
2021/09/14 13:53:18;;;;;;;;;;;11.00;99.90;;;;;;5072407;28;19920;-68
2021/09/14 13:55:45;;;;;;;;;;;11.00;99.90;;;;;;5072244;28;19913;-69
2021/09/14 13:58:13;;;;;;;;;;;11.00;99.90;;;;;;5072319;28;20015;-69
2021/09/14 14:00:39;;;;;;;;;;;10.90;99.90;;;;;;5072493;28;19948;-69
2021/09/14 14:03:06;;;;;;;;;;;10.90;99.90;;;;;;5072371;28;19916;-68
2021/09/14 14:05:33;;;;;;;;;;;10.90;99.90;;;;;;5072369;28;20399;-69
2021/09/14 14:07:59;;;;;;;;;;;10.90;99.90;;;;;;5072345;28;20027;-69
2021/09/14 14:10:26;;;;;;;;;;;10.80;99.90;;;;;;5072497;28;19909;-69
2021/09/14 14:12:56;;;;;;;;;;;10.80;99.90;;;;;;5072401;28;19961;-69
2021/09/14 14:15:23;;;;;;;;;;;10.70;99.90;;;;;;5072335;28;19913;-69
2021/09/14 14:17:49;;;;;;;;;;;10.60;99.90;;;;;;5072050;28;20315;-69
2021/09/14 14:20:16;;;;;;;;;;;10.60;99.90;;;;;;5072255;28;19912;-69
2021/09/14 14:22:43;;;;;;;;;;;10.60;99.90;;;;;;5072265;28;20375;-68
2021/09/14 14:25:09;;;;;;;;;;;10.50;99.90;;;;;;5072392;28;19935;-69
2021/09/14 14:27:36;;;;;;;;;;;10.50;99.90;;;;;;5071937;28;19909;-69
2021/09/14 14:30:03;;;;;;;;;;;10.50;99.90;;;;;;5072229;28;19944;-69
2021/09/14 14:32:30;;;;;;;;;;;10.50;99.90;;;;;;5072331;28;20360;-69
2021/09/14 14:34:57;;;;;;;;;;;10.50;99.90;;;;;;5072367;28;19915;-69
2021/09/14 14:37:23;;;;;;;;;;;10.40;99.90;;;;;;5072239;28;20016;-69
2021/09/14 14:39:50;;;;;;;;;;;10.50;99.90;;;;;;5073594;28;19989;-68
2021/09/14 14:42:16;;;;;;;;;;;10.50;99.90;;;;;;5076086;28;19999;-69
2021/09/14 14:44:43;;;;;;;;;;;10.40;99.90;;;;;;5076093;28;20011;-69
2021/09/14 14:47:10;;;;;;;;;;;10.30;99.90;;;;;;5075975;28;19926;-69
2021/09/14 14:49:37;;;;;;;;;;;10.30;99.90;;;;;;5075801;28;20004;-69
2021/09/14 14:52:03;;;;;;;;;;;10.30;99.90;;;;;;5076087;28;19936;-69
2021/09/14 14:54:30;;;;;;;;;;;10.40;99.90;;;;;;5075984;28;19915;-69
2021/09/14 14:56:57;;;;;;;;;;;10.40;99.90;;;;;;5075719;28;19908;-69
2021/09/14 14:59:23;;;;;;;;;;;10.30;99.90;;;;;;5075707;28;20321;-69
2021/09/14 15:01:50;;;;;;;;;;;10.30;99.90;;;;;;5075468;28;20425;-69
2021/09/14 15:04:18;;;;;;;;;;;10.30;99.90;;;;;;5075643;28;19909;-69
2021/09/14 15:06:45;;;;;;;;;;;10.20;99.90;;;;;;5075594;28;19954;-69
2021/09/14 15:09:12;;;;;;;;;;;10.30;99.90;;;;;;5075591;28;19909;-68
2021/09/14 15:11:39;;;;;;;;;;;10.30;99.90;;;;;;5075127;28;19908;-69
2021/09/14 15:14:05;;;;;;;;;;;10.30;99.90;;;;;;5075665;28;19963;-69